Ocotillo, California
Current Conditions -  °F | °C
As of 7:56 PM on Sunday 23 Nov 2014 (Local Time) from KNJK Reporting Station
Clear Clear  
Wind Chill: 55°   Ceiling: Unl
Heat Index: 55°   Visibility: 10mi
Dew Point: 27°   Wind: 7mph
Humidity: 34%   Direction: 220°SW
Pressure: 30.15"   Gusts: NA
Location:  32.74°N, 115.99°W
Report Text: KNJK 240356Z AUTO 22006KT 10SM CLR 13/M03 A3015 RMK AO2 SLP223 T01281028 PWINO $
Loading
Personal Weather Stations






























Interactive Weather Map New forecast layout! Learn more

10-Day Weather Forecast

Advertisements
Track Severe Weather on mobile